Time;durP1;ratioP1;P1;durP2;ratioP2;P2;SDS_P1;SDS_P2;PMS_P1;PMS_P2;Temp;Humidity;BMP_temperature;BMP_pressure;BME280_temperature;BME280_humidity;BME280_pressure;Samples;Min_cycle;Max_cycle;Signal;HPM_P1;HPM_P2
2021/05/05 00:02:21;;;;;;;5.63;2.85;;;;;;;12.47;57.38;95139.41;5032479;28;20301;-66
2021/05/05 00:04:47;;;;;;;5.15;2.85;;;;;;;12.50;57.76;95136.75;5032479;28;20052;-66
2021/05/05 00:07:13;;;;;;;4.57;2.83;;;;;;;12.55;57.42;95124.75;5031925;28;20664;-66
2021/05/05 00:09:39;;;;;;;4.65;2.70;;;;;;;12.54;57.69;95125.91;5033187;28;20042;-66
2021/05/05 00:12:07;;;;;;;4.70;2.83;;;;;;;12.57;58.40;95121.66;5031774;28;20072;-67
2021/05/05 00:14:33;;;;;;;4.43;2.55;;;;;;;12.57;57.52;95116.19;5033417;28;20405;-66
2021/05/05 00:16:59;;;;;;;5.47;2.65;;;;;;;12.58;57.31;95118.59;5032168;28;20049;-66
2021/05/05 00:19:25;;;;;;;4.20;2.63;;;;;;;12.62;57.77;95111.22;5032690;28;20049;-66
2021/05/05 00:21:51;;;;;;;4.05;2.85;;;;;;;12.64;57.60;95111.69;5032213;28;20038;-66
2021/05/05 00:24:17;;;;;;;3.30;2.40;;;;;;;12.72;57.96;95118.84;5032322;28;20120;-66
2021/05/05 00:26:43;;;;;;;5.78;2.50;;;;;;;12.73;57.98;95112.22;5032024;28;20400;-66
2021/05/05 00:29:10;;;;;;;4.57;2.75;;;;;;;12.78;58.79;95111.13;5031862;28;20053;-67
2021/05/05 00:31:37;;;;;;;4.97;2.97;;;;;;;12.77;58.38;95113.09;5032306;28;20410;-66
2021/05/05 00:34:04;;;;;;;4.95;2.83;;;;;;;12.76;58.15;95108.78;5030968;28;20053;-67
2021/05/05 00:36:30;;;;;;;3.97;2.83;;;;;;;12.80;58.21;95112.38;5032833;28;20045;-66
2021/05/05 00:38:56;;;;;;;5.13;2.83;;;;;;;12.85;59.00;95105.03;5031678;28;20052;-66
2021/05/05 00:41:22;;;;;;;3.55;2.53;;;;;;;12.89;59.23;95105.88;5032247;28;20048;-66
2021/05/05 00:43:49;;;;;;;4.13;3.30;;;;;;;12.91;60.06;95098.13;5031540;28;20049;-66
2021/05/05 00:46:16;;;;;;;5.88;2.97;;;;;;;12.93;59.78;95104.00;5031924;28;20487;-66
2021/05/05 00:48:42;;;;;;;3.53;2.72;;;;;;;12.95;59.13;95104.44;5031719;28;20052;-66
2021/05/05 00:51:08;;;;;;;4.25;2.78;;;;;;;12.95;59.71;95105.22;5031666;28;20092;-66
2021/05/05 00:53:35;;;;;;;4.70;2.90;;;;;;;12.95;60.60;95101.72;5031844;28;20051;-66
2021/05/05 00:56:02;;;;;;;4.63;3.15;;;;;;;12.94;60.67;95089.19;5031276;28;20049;-69
2021/05/05 00:58:28;;;;;;;4.13;2.80;;;;;;;12.93;60.52;95088.38;5032172;28;20440;-66
2021/05/05 01:00:54;;;;;;;5.53;3.38;;;;;;;12.90;60.46;95080.94;5031853;28;20050;-66
2021/05/05 01:03:21;;;;;;;4.05;2.67;;;;;;;12.80;60.77;95085.06;5031506;28;20049;-66
2021/05/05 01:05:48;;;;;;;6.38;3.05;;;;;;;12.73;61.20;95095.03;5031035;28;20049;-66
2021/05/05 01:08:16;;;;;;;5.03;2.97;;;;;;;12.64;60.23;95083.59;5031895;28;20607;-66
2021/05/05 01:10:44;;;;;;;5.18;2.60;;;;;;;12.63;60.40;95087.44;5030267;28;20100;-66
2021/05/05 01:13:11;;;;;;;3.55;2.67;;;;;;;12.63;60.49;95081.97;5031700;28;20408;-66
2021/05/05 01:15:37;;;;;;;4.55;2.72;;;;;;;12.56;60.50;95077.19;5031784;28;20127;-66
2021/05/05 01:18:03;;;;;;;6.15;3.50;;;;;;;12.54;60.72;95080.28;5031158;28;20501;-66
2021/05/05 01:23:51;;;;;;;5.63;3.42;;;;;;;12.54;59.86;95076.75;5067820;28;20052;-66
2021/05/05 01:26:17;;;;;;;5.78;3.22;;;;;;;12.52;59.72;95073.59;5070996;28;20044;-66
2021/05/05 01:28:45;;;;;;;4.15;3.10;;;;;;;12.49;59.67;95072.38;5070767;28;20045;-66
2021/05/05 01:31:14;;;;;;;4.07;3.13;;;;;;;12.34;60.33;95075.97;5070476;28;20044;-67
2021/05/05 01:33:40;;;;;;;7.53;3.35;;;;;;;12.19;61.07;95080.38;5070099;28;20045;-66
2021/05/05 01:36:08;;;;;;;5.07;2.92;;;;;;;12.13;61.84;95076.34;5070340;28;20503;-66
2021/05/05 01:38:34;;;;;;;5.22;3.10;;;;;;;12.11;61.75;95084.13;5071031;28;20052;-66
2021/05/05 01:41:01;;;;;;;4.93;3.30;;;;;;;12.08;62.21;95073.91;5070193;28;20055;-66
2021/05/05 01:43:27;;;;;;;7.03;3.60;;;;;;;12.01;62.39;95073.78;5071339;28;20039;-66
2021/05/05 01:45:53;;;;;;;5.03;3.55;;;;;;;11.99;62.65;95082.28;5069990;28;20045;-66
2021/05/05 01:48:20;;;;;;;5.18;3.50;;;;;;;11.98;62.52;95071.75;5070687;28;20094;-66
2021/05/05 01:50:46;;;;;;;4.95;3.10;;;;;;;11.99;62.94;95070.59;5070334;28;20048;-66
2021/05/05 01:53:14;;;;;;;5.00;3.40;;;;;;;11.96;63.13;95077.56;5070116;28;20048;-66
2021/05/05 01:55:40;;;;;;;4.50;3.35;;;;;;;11.98;63.59;95079.94;5070182;28;20048;-66
2021/05/05 01:58:07;;;;;;;6.70;4.18;;;;;;;11.95;62.82;95075.16;5070176;28;20495;-67
2021/05/05 02:00:33;;;;;;;6.38;3.83;;;;;;;11.93;63.61;95077.47;5070781;28;20040;-66
2021/05/05 02:02:59;;;;;;;5.03;3.75;;;;;;;11.91;63.63;95072.38;5069933;28;20044;-66
2021/05/05 02:05:25;;;;;;;5.22;3.70;;;;;;;11.96;63.50;95071.31;5070680;28;20545;-66
2021/05/05 02:07:51;;;;;;;7.20;3.83;;;;;;;11.97;63.34;95064.72;5069638;28;20044;-67
2021/05/05 02:10:18;;;;;;;4.93;3.72;;;;;;;11.92;63.36;95059.53;5070791;28;20079;-66
2021/05/05 02:12:45;;;;;;;4.70;3.45;;;;;;;11.89;63.38;95055.56;5069828;28;20052;-66
2021/05/05 02:15:14;;;;;;;4.63;3.75;;;;;;;11.89;63.74;95054.78;5070284;28;20430;-66
2021/05/05 02:17:40;;;;;;;6.88;3.65;;;;;;;11.87;63.81;95055.16;5069928;28;20047;-66
2021/05/05 02:20:08;;;;;;;5.25;3.85;;;;;;;11.87;63.98;95051.63;5070564;28;20040;-66
2021/05/05 02:22:35;;;;;;;4.97;3.80;;;;;;;11.88;63.73;95054.00;5070326;28;20060;-66
2021/05/05 02:25:01;;;;;;;5.10;3.78;;;;;;;11.84;64.21;95047.66;5069638;28;20678;-66
2021/05/05 02:27:28;;;;;;;5.28;4.00;;;;;;;11.83;64.40;95037.13;5070393;28;20043;-66
2021/05/05 02:29:54;;;;;;;4.07;3.30;;;;;;;11.84;64.59;95038.69;5069451;28;20044;-66
2021/05/05 02:32:23;;;;;;;5.72;3.90;;;;;;;11.77;64.05;95042.84;5070370;28;20102;-66
2021/05/05 02:34:50;;;;;;;6.07;3.90;;;;;;;11.64;64.41;95049.56;5069552;28;20037;-66
2021/05/05 02:37:16;;;;;;;5.15;3.60;;;;;;;11.51;64.69;95053.56;5070042;28;20049;-66
2021/05/05 02:39:43;;;;;;;5.80;4.15;;;;;;;11.47;65.55;95047.22;5069479;28;20525;-66
2021/05/05 02:42:12;;;;;;;4.60;3.63;;;;;;;11.45;65.96;95041.34;5069830;28;20043;-66
2021/05/05 02:44:38;;;;;;;7.72;4.30;;;;;;;11.46;66.17;95041.00;5069911;28;20048;-66
2021/05/05 02:47:04;;;;;;;6.53;4.30;;;;;;;11.42;65.68;95042.03;5069135;28;20041;-66
2021/05/05 02:49:32;;;;;;;4.63;3.72;;;;;;;11.47;66.28;95033.59;5070328;28;20048;-66
2021/05/05 02:51:58;;;;;;;5.88;4.47;;;;;;;11.46;66.74;95029.28;5069192;28;20254;-66
2021/05/05 02:54:25;;;;;;;5.00;3.78;;;;;;;11.51;66.12;95023.56;5069906;28;20041;-67
2021/05/05 02:56:51;;;;;;;12.05;4.35;;;;;;;11.53;65.96;95018.53;5069237;28;20094;-66
2021/05/05 02:59:17;;;;;;;5.78;3.72;;;;;;;11.58;65.92;95010.06;5069966;28;20041;-66
2021/05/05 03:01:43;;;;;;;5.28;3.97;;;;;;;11.59;66.22;95008.97;5070499;28;20045;-66
2021/05/05 03:04:09;;;;;;;6.07;4.20;;;;;;;11.53;66.15;95007.63;5069809;28;20080;-66
2021/05/05 03:06:36;;;;;;;6.78;3.90;;;;;;;11.51;65.60;95009.94;5067056;28;20048;-66
2021/05/05 03:09:04;;;;;;;7.22;4.00;;;;;;;11.44;66.53;94996.16;5068653;28;20448;-67
2021/05/05 03:11:30;;;;;;;5.30;3.85;;;;;;;11.25;68.16;95002.34;5069735;28;20056;-67
2021/05/05 03:13:56;;;;;;;5.28;4.18;;;;;;;10.97;69.90;95002.50;5070262;28;20048;-66
2021/05/05 03:16:22;;;;;;;7.38;4.35;;;;;;;10.80;71.11;95002.84;5069965;28;20533;-66
2021/05/05 03:18:48;;;;;;;6.18;4.40;;;;;;;10.63;72.08;95007.50;5068909;28;20094;-66
2021/05/05 03:21:14;;;;;;;6.28;4.10;;;;;;;10.51;73.28;95004.88;5069678;28;20049;-67
2021/05/05 03:23:41;;;;;;;7.20;4.85;;;;;;;10.41;74.53;95000.72;5068643;28;20556;-66
2021/05/05 03:26:07;;;;;;;5.70;4.53;;;;;;;10.26;74.62;94993.31;5069564;28;20527;-67
2021/05/05 03:28:33;;;;;;;6.93;4.93;;;;;;;10.24;75.92;94989.38;5069073;28;20052;-66
2021/05/05 03:30:59;;;;;;;6.97;4.68;;;;;;;10.17;76.06;94984.50;5069791;28;20418;-66
2021/05/05 03:33:25;;;;;;;5.95;4.82;;;;;;;10.20;76.29;94981.88;5070167;28;20051;-66
2021/05/05 03:35:50;;;;;;;7.22;4.60;;;;;;;10.17;76.59;94979.84;5073114;28;20040;-66
2021/05/05 03:38:16;;;;;;;7.13;4.70;;;;;;;10.16;77.15;94978.28;5072788;28;20518;-66
2021/05/05 03:40:43;;;;;;;5.90;4.85;;;;;;;10.14;77.09;94968.88;5072858;28;20560;-66
2021/05/05 03:43:09;;;;;;;6.68;4.85;;;;;;;10.11;76.24;94964.94;5073216;28;20040;-66
2021/05/05 03:45:35;;;;;;;6.15;4.72;;;;;;;10.09;77.57;94971.88;5072532;28;20403;-66
2021/05/05 03:48:01;;;;;;;6.35;4.80;;;;;;;10.06;77.01;94967.91;5073034;28;20491;-68
2021/05/05 03:50:27;;;;;;;7.43;4.72;;;;;;;9.97;76.99;94967.28;5073737;28;20044;-66
2021/05/05 03:52:53;;;;;;;7.38;4.82;;;;;;;9.93;77.77;94969.91;5073381;28;20052;-66
2021/05/05 03:55:20;;;;;;;6.93;4.65;;;;;;;9.86;77.94;94974.34;5071979;28;20094;-66
2021/05/05 03:57:47;;;;;;;7.05;5.60;;;;;;;9.76;78.25;94980.28;5073002;28;20044;-66
2021/05/05 04:00:14;;;;;;;5.65;4.75;;;;;;;9.80;79.21;94981.16;5072385;28;20049;-66
2021/05/05 04:02:40;;;;;;;7.07;5.53;;;;;;;9.80;79.51;94983.88;5072485;28;20049;-66
2021/05/05 04:05:07;;;;;;;8.02;5.50;;;;;;;9.82;79.65;94989.78;5072535;28;20055;-66
2021/05/05 04:07:33;;;;;;;7.13;5.32;;;;;;;9.85;80.14;94991.78;5072211;28;20403;-66
2021/05/05 04:09:59;;;;;;;9.90;5.82;;;;;;;9.89;80.74;94989.97;5073232;28;20052;-66
2021/05/05 04:12:28;;;;;;;6.38;4.78;;;;;;;9.90;80.61;95002.41;5071570;28;20040;-66
2021/05/05 04:14:55;;;;;;;4.50;3.20;;;;;;;9.81;78.81;95015.38;5073218;28;20049;-66
2021/05/05 04:17:22;;;;;;;3.28;1.85;;;;;;;9.60;77.20;95021.78;5071594;28;20700;-66
2021/05/05 04:19:48;;;;;;;1.70;1.30;;;;;;;9.40;76.67;95017.31;5072923;28;20059;-66
2021/05/05 04:22:14;;;;;;;4.47;1.48;;;;;;;9.26;76.38;95028.53;5071636;28;20106;-67
2021/05/05 04:24:40;;;;;;;3.40;1.10;;;;;;;9.03;75.96;95028.22;5072178;28;20041;-66
2021/05/05 04:27:06;;;;;;;2.95;1.27;;;;;;;8.83;75.86;95038.06;5072000;28;20060;-67
2021/05/05 04:29:32;;;;;;;2.03;1.13;;;;;;;8.77;76.26;95044.03;5071903;28;20049;-66
2021/05/05 04:31:59;;;;;;;2.78;1.50;;;;;;;8.61;77.40;95058.28;5072632;28;20106;-66
2021/05/05 04:34:26;;;;;;;1.80;1.38;;;;;;;8.49;77.96;95060.16;5071133;28;20049;-66
2021/05/05 04:36:52;;;;;;;2.50;1.58;;;;;;;8.32;78.19;95059.19;5072860;28;20056;-66
2021/05/05 04:39:18;;;;;;;2.45;1.48;;;;;;;8.25;78.94;95069.78;5071174;28;20045;-66
2021/05/05 04:41:44;;;;;;;4.60;2.63;;;;;;;8.13;79.32;95064.31;5072575;28;20044;-66
2021/05/05 04:44:10;;;;;;;3.58;1.52;;;;;;;8.09;79.72;95063.38;5071946;28;20090;-66
2021/05/05 04:46:36;;;;;;;3.13;1.30;;;;;;;8.06;78.72;95064.06;5071795;28;20047;-66
2021/05/05 04:49:03;;;;;;;3.03;1.13;;;;;;;7.94;78.00;95078.38;5071536;28;20051;-67
2021/05/05 04:51:29;;;;;;;4.53;1.50;;;;;;;7.81;78.56;95079.41;5071840;28;20044;-66
2021/05/05 04:53:55;;;;;;;3.55;1.50;;;;;;;7.74;79.56;95090.81;5071712;28;20098;-66
2021/05/05 04:56:21;;;;;;;5.05;1.95;;;;;;;7.73;80.09;95093.84;5070774;28;20495;-66
2021/05/05 04:58:47;;;;;;;6.32;1.75;;;;;;;7.70;80.52;95095.28;5072088;28;20040;-66
2021/05/05 05:01:13;;;;;;;2.75;2.08;;;;;;;7.71;80.85;95113.13;5070510;28;20045;-66
2021/05/05 05:03:39;;;;;;;6.57;2.00;;;;;;;7.66;80.83;95105.19;5072271;28;20089;-66
2021/05/05 05:06:06;;;;;;;2.85;1.67;;;;;;;7.67;81.19;95116.81;5070632;28;20056;-67
2021/05/05 05:08:32;;;;;;;4.60;2.13;;;;;;;7.66;81.35;95121.44;5071981;28;20113;-66
2021/05/05 05:10:58;;;;;;;6.50;2.10;;;;;;;7.72;81.27;95124.75;5071009;28;20511;-66
2021/05/05 05:13:24;;;;;;;4.80;2.50;;;;;;;7.72;81.52;95135.59;5070896;28;20138;-66
2021/05/05 05:15:50;;;;;;;4.72;2.58;;;;;;;7.72;81.56;95141.00;5071185;28;20522;-66
2021/05/05 05:18:16;;;;;;;4.43;2.17;;;;;;;7.58;81.54;95144.78;5070693;28;20052;-66
2021/05/05 05:20:42;;;;;;;5.65;2.35;;;;;;;7.57;82.31;95151.31;5071108;28;20045;-66
2021/05/05 05:23:09;;;;;;;4.57;2.63;;;;;;;7.57;82.28;95151.31;5068687;28;20079;-67
2021/05/05 05:25:35;;;;;;;3.50;2.20;;;;;;;7.65;82.63;95152.38;5071652;28;20040;-66
2021/05/05 05:28:01;;;;;;;3.83;1.70;;;;;;;7.44;81.65;95162.38;5070467;28;20099;-66
2021/05/05 05:30:27;;;;;;;3.47;1.70;;;;;;;7.26;81.83;95159.75;5071335;28;20099;-66
2021/05/05 05:32:53;;;;;;;4.10;1.77;;;;;;;7.20;82.07;95163.75;5070470;28;20052;-66
2021/05/05 05:35:19;;;;;;;3.30;1.55;;;;;;;7.19;82.18;95175.72;5070710;28;20051;-66
2021/05/05 05:37:45;;;;;;;4.00;1.50;;;;;;;7.09;81.95;95188.81;5070596;28;20048;-66
2021/05/05 05:40:14;;;;;;;5.70;1.70;;;;;;;7.07;82.81;95192.63;5070394;28;20502;-66
2021/05/05 05:42:40;;;;;;;2.72;1.50;;;;;;;7.07;83.20;95198.06;5070709;28;20090;-66
2021/05/05 05:45:07;;;;;;;4.72;1.80;;;;;;;7.14;83.42;95197.53;5070837;28;20048;-66
2021/05/05 05:47:33;;;;;;;2.17;1.20;;;;;;;7.15;82.86;95199.16;5070916;28;20041;-72
2021/05/05 05:49:59;;;;;;;5.15;1.30;;;;;;;7.13;82.38;95200.59;5070333;28;20514;-73
2021/05/05 05:52:25;;;;;;;2.63;0.82;;;;;;;7.08;81.99;95190.72;5069972;28;20116;-71
2021/05/05 05:54:51;;;;;;;1.55;1.00;;;;;;;7.04;82.28;95187.06;5068059;28;20044;-71
2021/05/05 05:57:18;;;;;;;5.72;1.13;;;;;;;7.03;81.37;95190.91;5067585;28;20052;-72
2021/05/05 05:59:44;;;;;;;2.05;1.00;;;;;;;6.98;81.32;95205.38;5066925;28;20056;-71
2021/05/05 06:02:11;;;;;;;4.25;0.88;;;;;;;6.98;81.23;95210.81;5067338;28;20558;-71
2021/05/05 06:04:37;;;;;;;3.70;1.00;;;;;;;6.95;81.32;95210.69;5067541;28;20051;-71
2021/05/05 06:07:03;;;;;;;2.92;1.00;;;;;;;6.94;81.58;95199.06;5066868;28;20048;-71
2021/05/05 06:09:29;;;;;;;3.90;1.83;;;;;;;6.98;81.26;95208.09;5067794;28;20055;-71
2021/05/05 06:11:55;;;;;;;1.35;0.68;;;;;;;6.88;80.20;95215.78;5066875;28;20449;-70
2021/05/05 06:14:22;;;;;;;5.20;1.00;;;;;;;6.88;80.20;95223.88;5067591;28;20048;-70
2021/05/05 06:16:48;;;;;;;0.90;0.70;;;;;;;6.86;79.92;95228.84;5066212;28;20040;-72
2021/05/05 06:19:14;;;;;;;2.75;0.60;;;;;;;6.82;79.56;95239.50;5067151;28;20154;-71
2021/05/05 06:21:40;;;;;;;2.63;0.68;;;;;;;6.82;79.64;95239.50;5066015;28;20047;-71
2021/05/05 06:24:07;;;;;;;1.60;0.73;;;;;;;6.74;79.61;95254.66;5066654;28;20044;-72
2021/05/05 06:26:33;;;;;;;1.65;0.60;;;;;;;6.65;79.65;95261.16;5067017;28;20091;-72
2021/05/05 06:28:59;;;;;;;1.00;0.68;;;;;;;6.68;80.33;95264.03;5067591;28;20542;-72
2021/05/05 06:31:26;;;;;;;3.58;0.80;;;;;;;6.66;80.39;95270.88;5066925;28;20048;-72
2021/05/05 06:33:52;;;;;;;4.05;1.23;;;;;;;6.70;80.45;95269.91;5067002;28;20052;-72
2021/05/05 06:36:18;;;;;;;2.30;1.00;;;;;;;6.72;80.96;95272.28;5067128;28;20048;-72
2021/05/05 06:38:44;;;;;;;2.83;1.05;;;;;;;6.73;81.09;95279.28;5066929;28;20518;-72
2021/05/05 06:41:10;;;;;;;6.22;1.52;;;;;;;6.75;81.61;95282.50;5067410;28;20139;-72
2021/05/05 06:43:36;;;;;;;1.65;0.80;;;;;;;6.80;81.04;95285.81;5066456;28;20064;-71
2021/05/05 06:46:02;;;;;;;3.08;0.90;;;;;;;6.61;79.50;95298.09;5067105;28;20105;-72
2021/05/05 06:48:29;;;;;;;4.38;1.30;;;;;;;6.56;80.22;95317.16;5066502;28;20045;-71
2021/05/05 06:50:55;;;;;;;3.05;1.00;;;;;;;6.52;80.57;95317.81;5067269;28;20060;-71
2021/05/05 06:53:22;;;;;;;1.83;0.80;;;;;;;6.40;79.42;95324.94;5047758;28;20052;-72
2021/05/05 06:55:48;;;;;;;3.10;1.10;;;;;;;6.15;79.15;95323.78;5067276;28;20503;-71
2021/05/05 06:58:14;;;;;;;3.78;1.02;;;;;;;6.05;81.17;95329.47;5066918;28;20075;-72
2021/05/05 07:00:40;;;;;;;5.22;1.58;;;;;;;6.01;81.60;95321.22;5066524;28;20075;-72
2021/05/05 07:03:07;;;;;;;5.00;1.00;;;;;;;6.02;81.01;95322.81;5067450;28;20052;-72
2021/05/05 07:05:34;;;;;;;3.25;0.75;;;;;;;6.04;80.33;95314.38;5066408;28;20049;-72
2021/05/05 07:08:00;;;;;;;3.70;0.80;;;;;;;5.88;79.46;95322.88;5068526;28;20049;-70
2021/05/05 07:10:26;;;;;;;2.00;0.73;;;;;;;5.76;79.97;95311.88;5070171;28;20048;-71
2021/05/05 07:12:52;;;;;;;1.73;0.60;;;;;;;5.78;80.89;95315.06;5069232;28;20052;-70
2021/05/05 07:15:18;;;;;;;4.20;0.90;;;;;;;5.79;81.77;95315.84;5069930;28;20044;-70
2021/05/05 07:17:43;;;;;;;5.30;1.10;;;;;;;5.87;82.41;95307.00;5073523;28;20032;-69
2021/05/05 07:20:11;;;;;;;2.67;0.80;;;;;;;5.94;82.71;95291.94;5072803;28;20053;-70
2021/05/05 07:22:38;;;;;;;2.78;0.85;;;;;;;5.93;81.83;95287.66;5072946;28;20098;-69
2021/05/05 07:25:05;;;;;;;2.90;0.77;;;;;;;5.89;80.48;95294.75;5073664;28;20062;-71
2021/05/05 07:27:32;;;;;;;2.70;0.70;;;;;;;5.91;80.61;95297.97;5073202;28;20040;-70
2021/05/05 07:29:58;;;;;;;2.15;0.60;;;;;;;5.99;81.39;95294.50;5074039;28;20067;-70
2021/05/05 07:32:24;;;;;;;1.40;0.70;;;;;;;5.92;79.81;95304.97;5072376;28;20135;-70
2021/05/05 07:34:50;;;;;;;1.65;0.50;;;;;;;5.77;80.20;95291.88;5073891;28;20115;-70
2021/05/05 07:37:23;;;;;;;0.52;0.40;;;;;;;5.73;79.90;95299.78;5072305;28;20128;-71
2021/05/05 07:40:35;;;;;;;1.05;0.60;;;;;;;5.74;80.70;95298.69;5073696;28;20048;-70
2021/05/05 07:45:57;;;;;;;0.70;0.30;;;;;;;5.57;81.64;95311.31;5056155;28;20075;-71
2021/05/05 07:48:27;;;;;;;2.05;0.63;;;;;;;5.64;81.26;95314.41;5073151;28;20047;-70
2021/05/05 07:50:54;;;;;;;1.55;0.50;;;;;;;5.63;81.46;95318.19;5072717;28;20059;-70
2021/05/05 07:53:20;;;;;;;2.40;0.68;;;;;;;5.71;82.21;95310.13;5072382;28;20056;-70
2021/05/05 07:55:47;;;;;;;1.38;0.80;;;;;;;6.11;83.63;95312.81;5072906;28;20040;-70
2021/05/05 07:58:13;;;;;;;0.88;0.68;;;;;;;6.41;81.64;95321.91;5072708;28;20071;-70
2021/05/05 08:00:42;;;;;;;1.10;0.70;;;;;;;6.52;80.20;95317.81;5073157;28;20048;-70
2021/05/05 08:03:08;;;;;;;2.38;0.80;;;;;;;6.52;78.53;95325.94;5072130;28;20049;-71
2021/05/05 08:05:34;;;;;;;1.52;0.80;;;;;;;6.54;78.19;95329.09;5073505;28;20048;-70
2021/05/05 08:08:00;;;;;;;2.65;1.35;;;;;;;6.61;78.95;95319.72;5072237;28;20044;-69
2021/05/05 08:10:26;;;;;;;2.33;0.90;;;;;;;6.51;78.13;95320.81;5073177;28;20045;-70
2021/05/05 08:12:54;;;;;;;2.80;1.00;;;;;;;6.67;78.66;95318.44;5072448;28;21121;-70
2021/05/05 08:15:20;;;;;;;2.70;1.30;;;;;;;6.86;79.27;95323.53;5072928;28;20135;-70
2021/05/05 08:17:47;;;;;;;4.28;1.27;;;;;;;6.83;78.83;95327.66;5072475;28;20041;-70
2021/05/05 08:20:14;;;;;;;3.92;1.08;;;;;;;7.01;77.92;95306.81;5071804;28;20060;-70
2021/05/05 08:22:40;;;;;;;0.80;0.70;;;;;;;7.20;76.95;95309.16;5072159;28;20052;-70
2021/05/05 08:25:07;;;;;;;1.10;0.90;;;;;;;7.21;76.60;95303.44;5054153;28;20044;-69
2021/05/05 08:27:34;;;;;;;4.15;0.90;;;;;;;7.14;76.04;95305.03;5072464;28;20044;-69
2021/05/05 08:30:01;;;;;;;1.30;0.90;;;;;;;7.21;77.39;95311.56;5072111;28;20166;-69
2021/05/05 08:32:26;;;;;;;2.03;1.08;;;;;;;7.67;78.09;95320.81;5072890;28;20044;-69
2021/05/05 08:34:52;;;;;;;2.45;1.13;;;;;;;7.86;76.87;95339.41;5071989;28;20509;-69
2021/05/05 08:37:19;;;;;;;2.63;1.10;;;;;;;7.58;77.20;95341.75;5072465;28;20052;-70
2021/05/05 08:39:45;;;;;;;1.60;0.90;;;;;;;7.37;76.92;95352.47;5072182;28;20033;-69
2021/05/05 08:42:12;;;;;;;1.98;0.90;;;;;;;7.17;77.05;95366.69;5072108;28;20063;-69
2021/05/05 08:44:40;;;;;;;1.08;0.85;;;;;;;7.20;78.07;95376.84;5072312;28;20048;-69
2021/05/05 08:47:07;;;;;;;1.50;0.88;;;;;;;7.13;77.39;95373.84;5071483;28;20041;-70
2021/05/05 08:49:33;;;;;;;1.67;0.98;;;;;;;7.07;78.47;95371.28;5072314;28;20052;-70
2021/05/05 08:52:00;;;;;;;3.72;1.40;;;;;;;7.14;80.04;95381.63;5071650;28;20052;-69
2021/05/05 08:54:26;;;;;;;2.78;1.10;;;;;;;7.28;80.50;95371.44;5071329;28;20411;-70
2021/05/05 08:56:52;;;;;;;1.98;0.90;;;;;;;7.35;79.31;95362.03;5071383;28;20056;-70
2021/05/05 08:59:18;;;;;;;1.20;0.77;;;;;;;7.31;76.64;95354.56;5072185;28;20040;-69
2021/05/05 09:01:44;;;;;;;1.02;0.65;;;;;;;7.33;76.91;95352.31;5071134;28;20068;-68
2021/05/05 09:04:12;;;;;;;1.83;0.90;;;;;;;7.36;77.46;95348.19;5071779;28;20063;-68
2021/05/05 09:06:59;;;;;;;1.02;0.85;;;;;;;7.39;78.50;95344.81;5071420;28;20048;-69
2021/05/05 09:09:37;;;;;;;1.00;0.70;;;;;;;7.44;78.48;95344.66;5066171;28;20044;-69
2021/05/05 09:12:27;;;;;;;0.90;0.80;;;;;;;7.41;77.72;95358.81;5071503;28;20048;-71
2021/05/05 09:14:56;;;;;;;1.50;1.17;;;;;;;7.33;78.35;95368.56;5050655;28;20070;-70
2021/05/05 09:17:23;;;;;;;1.50;0.82;;;;;;;7.30;78.97;95373.81;5071444;28;20063;-69
2021/05/05 09:19:55;;;;;;;1.15;0.80;;;;;;;7.28;78.81;95366.03;5070911;28;20048;-69
2021/05/05 09:22:36;;;;;;;1.75;0.90;;;;;;;7.35;78.79;95370.94;5070798;28;20063;-69
2021/05/05 09:25:03;;;;;;;1.35;0.80;;;;;;;7.43;80.12;95375.56;5071007;28;20051;-70
2021/05/05 09:27:33;;;;;;;1.90;0.90;;;;;;;7.45;79.14;95367.91;5070533;28;20048;-69
2021/05/05 09:30:00;;;;;;;1.30;0.80;;;;;;;7.63;78.57;95367.88;5071500;28;20048;-69
2021/05/05 09:32:26;;;;;;;0.90;0.80;;;;;;;7.66;76.94;95361.78;5069604;28;20063;-69
2021/05/05 09:34:59;;;;;;;1.63;0.90;;;;;;;7.72;77.96;95363.22;5071889;28;20049;-70
2021/05/05 09:37:26;;;;;;;2.85;1.00;;;;;;;7.78;78.13;95372.78;5070509;28;20109;-69
2021/05/05 09:40:00;;;;;;;1.38;0.80;;;;;;;7.77;75.12;95371.97;5071468;28;20275;-69
2021/05/05 09:42:28;;;;;;;0.98;0.77;;;;;;;7.75;74.25;95376.91;5070599;28;20040;-69
2021/05/05 09:44:56;;;;;;;0.88;0.50;;;;;;;7.66;75.08;95380.75;5070933;28;20051;-69
2021/05/05 09:47:22;;;;;;;1.75;0.80;;;;;;;7.64;75.62;95383.00;5070487;28;20102;-69
2021/05/05 09:49:48;;;;;;;1.10;0.80;;;;;;;7.67;76.13;95385.84;5071659;28;20041;-68
2021/05/05 09:52:24;;;;;;;1.67;0.80;;;;;;;7.77;75.36;95384.72;5071103;28;20486;-68
2021/05/05 09:54:55;;;;;;;2.15;1.10;;;;;;;7.94;76.33;95379.25;5070384;28;20048;-70
2021/05/05 09:57:22;;;;;;;2.78;1.13;;;;;;;8.15;76.89;95383.97;5070704;28;20055;-69
2021/05/05 09:59:59;;;;;;;2.22;1.00;;;;;;;8.40;76.10;95376.81;5069853;28;20120;-69
2021/05/05 10:02:27;;;;;;;2.58;1.20;;;;;;;8.46;74.00;95375.53;5069679;28;20045;-69
2021/05/05 10:04:58;;;;;;;4.00;1.60;;;;;;;8.70;77.37;95370.25;5070105;28;20048;-69
2021/05/05 10:07:25;;;;;;;3.38;1.23;;;;;;;9.02;73.89;95371.47;5069715;28;20048;-69
2021/05/05 10:09:51;;;;;;;2.13;1.15;;;;;;;9.13;72.22;95375.41;5070878;28;20052;-69
2021/05/05 10:12:20;;;;;;;4.47;1.70;;;;;;;9.06;71.64;95374.31;5069713;28;20040;-70
2021/05/05 10:14:48;;;;;;;6.95;1.48;;;;;;;9.08;68.88;95364.72;5071019;28;20036;-70
2021/05/05 10:17:15;;;;;;;3.47;1.60;;;;;;;8.84;71.02;95364.59;5069395;28;20051;-69
2021/05/05 10:19:43;;;;;;;4.07;1.90;;;;;;;8.76;71.54;95357.28;5070647;28;20048;-69
2021/05/05 10:22:11;;;;;;;3.05;1.70;;;;;;;8.62;71.18;95369.22;5069458;28;20499;-69
2021/05/05 10:24:44;;;;;;;4.07;1.45;;;;;;;8.57;72.15;95376.75;5068593;28;20040;-69
2021/05/05 10:27:11;;;;;;;;;;;;;;;8.61;73.63;95383.09;5067355;28;20048;-69
2021/05/05 10:29:38;;;;;;;6.95;2.30;;;;;;;8.57;75.47;95393.03;5067004;28;19920;-70
2021/05/05 10:32:10;;;;;;;5.07;1.77;;;;;;;8.62;72.58;95396.34;5067276;28;20044;-70
2021/05/05 10:34:36;;;;;;;5.30;1.55;;;;;;;8.74;71.73;95392.13;5066617;28;20056;-69
2021/05/05 10:37:04;;;;;;;3.72;1.30;;;;;;;8.79;70.31;95390.00;5067609;28;20048;-69
2021/05/05 10:39:38;;;;;;;6.47;1.88;;;;;;;8.95;71.99;95392.13;5066360;28;20131;-70
2021/05/05 10:42:17;;;;;;;6.05;2.05;;;;;;;9.02;71.01;95393.19;5067139;28;20052;-70
2021/05/05 10:44:46;;;;;;;3.90;1.65;;;;;;;9.00;68.87;95395.44;5066912;28;20048;-69
2021/05/05 10:47:16;;;;;;;5.30;1.55;;;;;;;9.09;69.87;95404.34;5066132;28;20048;-69
2021/05/05 10:50:08;;;;;;;5.18;1.98;;;;;;;9.01;69.77;95413.31;5066764;28;20078;-69
2021/05/05 10:53:08;;;;;;;4.68;1.70;;;;;;;8.88;68.52;95412.47;5064748;28;20040;-69
2021/05/05 10:55:40;;;;;;;2.67;1.58;;;;;;;8.62;69.96;95414.56;5066811;28;20044;-70
2021/05/05 10:58:08;;;;;;;5.28;2.10;;;;;;;8.36;73.27;95441.81;5066512;28;20048;-69
2021/05/05 11:01:02;;;;;;;6.18;1.92;;;;;;;7.66;72.30;95440.38;5066978;28;20055;-70
2021/05/05 11:03:52;;;;;;;4.68;1.55;;;;;;;7.17;73.36;95437.06;5049111;28;20040;-70
2021/05/05 11:06:44;;;;;;;5.05;1.40;;;;;;;6.97;73.84;95430.38;5065903;28;20497;-69
2021/05/05 11:09:47;;;;;;;5.55;1.58;;;;;;;6.89;73.47;95431.97;5066463;28;20048;-69
2021/05/05 11:12:39;;;;;;;5.90;1.60;;;;;;;6.94;72.27;95437.22;5066959;28;20052;-70
2021/05/05 11:15:08;;;;;;;3.42;1.65;;;;;;;6.88;68.25;95427.63;5061536;28;20041;-69
2021/05/05 11:17:34;;;;;;;3.60;1.33;;;;;;;6.84;68.91;95440.22;5067050;28;20056;-68
2021/05/05 11:20:00;;;;;;;6.07;2.42;;;;;;;6.89;69.73;95453.63;5067020;28;20057;-69
2021/05/05 11:22:46;;;;;;;3.80;1.30;;;;;;;7.03;69.89;95440.72;5065912;28;20554;-69
2021/05/05 11:25:24;;;;;;;6.18;1.45;;;;;;;7.15;67.00;95442.00;5066265;28;20048;-70
2021/05/05 11:27:53;;;;;;;4.97;1.70;;;;;;;7.17;66.95;95443.28;5068904;28;20048;-70
2021/05/05 11:30:30;;;;;;;5.75;1.70;;;;;;;7.20;67.04;95450.75;5069389;28;20495;-69
2021/05/05 11:32:56;;;;;;;4.55;1.90;;;;;;;7.30;65.36;95445.00;5069083;28;20075;-71
2021/05/05 11:35:26;;;;;;;8.90;1.83;;;;;;;7.41;66.18;95450.91;5069474;28;20479;-69
2021/05/05 11:38:04;;;;;;;7.63;1.70;;;;;;;7.56;64.05;95455.03;5069202;28;20049;-69
2021/05/05 11:40:30;;;;;;;5.07;1.60;;;;;;;7.72;66.84;95460.75;5069336;28;20045;-69
2021/05/05 11:42:56;;;;;;;5.53;1.42;;;;;;;7.92;63.77;95460.09;5069721;28;20045;-69
2021/05/05 11:45:22;;;;;;;10.77;2.03;;;;;;;7.95;62.27;95464.88;5068555;28;20041;-69
2021/05/05 11:47:48;;;;;;;4.90;1.58;;;;;;;7.92;63.52;95478.28;5069624;28;20077;-69
2021/05/05 11:50:16;;;;;;;5.72;1.80;;;;;;;7.95;60.88;95459.47;5068373;28;20049;-68